Blairsville, Illinois
Current Conditions -  °F | °C
As of 9:49 AM on Thursday 18 Dec 2014 (Local Time) from KMWA Reporting Station
Light Snow Light Snow  
Wind Chill: -3°   Ceiling: 500
Heat Index:   Visibility: 2mi
Dew Point: -1°   Wind: 6mph
Humidity: 93%   Direction: 40°NE
Pressure: 30.32"   Gusts: NA
Location:  37.7927°N, 89.0997°W
Report Text: KMWA 181549Z 04005KT 2SM -SN BKN005 OVC029 00/M01 A3032
Loading
Personal Weather Stations






























Interactive Weather Map New forecast layout! Learn more

10-Day Weather Forecast

Advertisements
Track Severe Weather on mobile